> <
  • 1
  • 2

Novidades

  • Temos o prazer de lhe apresentar… Ler mais +
  • Está disponível a secção Multimédia no… Ler mais +
  • 1
[source: ADDS]
METAR
LPPR 221700Z 33007KT CAVOK 16/11 Q1026 =
TAF
TAF LPPR 221700Z 2218/2318 33007KT CAVOK BECMG 2220/2222 01005KT BECMG 2300/2303 08007KT BECMG 2312/2315 32010KT =

contactos